sensor_id;sensor_type;location;lat;lon;timestamp;P1;durP1;ratioP1;P2;durP2;ratioP2
3309;SDS011;1667;53.238;10.394;2023-03-01T00:01:50;6.90;;;5.40;;
3309;SDS011;1667;53.238;10.394;2023-03-01T00:06:48;9.67;;;6.33;;
3309;SDS011;1667;53.238;10.394;2023-03-01T00:11:47;9.97;;;6.40;;
3309;SDS011;1667;53.238;10.394;2023-03-01T00:16:48;11.00;;;7.47;;
3309;SDS011;1667;53.238;10.394;2023-03-01T00:21:46;11.77;;;6.97;;
3309;SDS011;1667;53.238;10.394;2023-03-01T00:26:45;10.17;;;6.47;;
3309;SDS011;1667;53.238;10.394;2023-03-01T00:31:44;7.87;;;5.60;;
3309;SDS011;1667;53.238;10.394;2023-03-01T00:36:44;9.60;;;6.33;;
3309;SDS011;1667;53.238;10.394;2023-03-01T00:41:42;12.27;;;7.47;;
3309;SDS011;1667;53.238;10.394;2023-03-01T00:46:41;16.03;;;9.20;;
3309;SDS011;1667;53.238;10.394;2023-03-01T00:51:40;13.33;;;8.27;;
3309;SDS011;1667;53.238;10.394;2023-03-01T00:56:39;16.47;;;9.00;;
3309;SDS011;1667;53.238;10.394;2023-03-01T01:01:38;9.13;;;5.23;;
3309;SDS011;1667;53.238;10.394;2023-03-01T01:06:39;6.07;;;4.57;;
3309;SDS011;1667;53.238;10.394;2023-03-01T01:11:41;9.50;;;5.60;;
3309;SDS011;1667;53.238;10.394;2023-03-01T01:16:39;8.43;;;5.57;;
3309;SDS011;1667;53.238;10.394;2023-03-01T01:21:38;7.73;;;4.80;;
3309;SDS011;1667;53.238;10.394;2023-03-01T01:26:37;10.67;;;5.80;;
3309;SDS011;1667;53.238;10.394;2023-03-01T01:31:37;7.67;;;4.80;;
3309;SDS011;1667;53.238;10.394;2023-03-01T01:36:38;6.13;;;5.50;;
3309;SDS011;1667;53.238;10.394;2023-03-01T01:41:36;6.73;;;4.53;;
3309;SDS011;1667;53.238;10.394;2023-03-01T01:46:35;7.83;;;4.30;;
3309;SDS011;1667;53.238;10.394;2023-03-01T01:51:39;7.53;;;4.20;;
3309;SDS011;1667;53.238;10.394;2023-03-01T01:56:40;6.27;;;4.10;;
3309;SDS011;1667;53.238;10.394;2023-03-01T02:01:46;8.20;;;4.03;;
3309;SDS011;1667;53.238;10.394;2023-03-01T02:06:46;4.83;;;3.57;;
3309;SDS011;1667;53.238;10.394;2023-03-01T02:11:49;8.40;;;4.93;;
3309;SDS011;1667;53.238;10.394;2023-03-01T02:16:50;6.83;;;4.50;;
3309;SDS011;1667;53.238;10.394;2023-03-01T02:21:50;4.70;;;4.07;;
3309;SDS011;1667;53.238;10.394;2023-03-01T02:26:58;3.67;;;3.30;;
3309;SDS011;1667;53.238;10.394;2023-03-01T02:31:59;5.33;;;3.93;;
3309;SDS011;1667;53.238;10.394;2023-03-01T02:37:00;3.87;;;3.47;;
3309;SDS011;1667;53.238;10.394;2023-03-01T02:42:01;5.67;;;4.70;;
3309;SDS011;1667;53.238;10.394;2023-03-01T02:47:03;7.60;;;3.70;;
3309;SDS011;1667;53.238;10.394;2023-03-01T02:57:39;5.43;;;3.20;;
3309;SDS011;1667;53.238;10.394;2023-03-01T03:02:41;4.70;;;3.77;;
3309;SDS011;1667;53.238;10.394;2023-03-01T03:07:51;4.80;;;3.03;;
3309;SDS011;1667;53.238;10.394;2023-03-01T03:12:51;4.57;;;3.40;;
3309;SDS011;1667;53.238;10.394;2023-03-01T03:17:52;6.07;;;3.80;;
3309;SDS011;1667;53.238;10.394;2023-03-01T03:22:52;3.17;;;2.90;;
3309;SDS011;1667;53.238;10.394;2023-03-01T03:27:52;5.20;;;3.60;;
3309;SDS011;1667;53.238;10.394;2023-03-01T03:32:54;7.67;;;3.33;;
3309;SDS011;1667;53.238;10.394;2023-03-01T03:37:53;4.03;;;2.87;;
3309;SDS011;1667;53.238;10.394;2023-03-01T03:43:03;4.90;;;3.10;;
3309;SDS011;1667;53.238;10.394;2023-03-01T03:48:05;3.70;;;2.90;;
3309;SDS011;1667;53.238;10.394;2023-03-01T03:53:06;4.40;;;3.40;;
3309;SDS011;1667;53.238;10.394;2023-03-01T03:58:06;4.87;;;3.60;;
3309;SDS011;1667;53.238;10.394;2023-03-01T04:03:07;5.17;;;3.40;;
3309;SDS011;1667;53.238;10.394;2023-03-01T04:08:07;4.77;;;4.27;;
3309;SDS011;1667;53.238;10.394;2023-03-01T04:13:06;3.87;;;2.63;;
3309;SDS011;1667;53.238;10.394;2023-03-01T04:18:09;3.47;;;3.17;;
3309;SDS011;1667;53.238;10.394;2023-03-01T04:23:11;5.93;;;2.67;;
3309;SDS011;1667;53.238;10.394;2023-03-01T04:28:12;3.60;;;2.73;;
3309;SDS011;1667;53.238;10.394;2023-03-01T04:33:12;3.50;;;2.90;;
3309;SDS011;1667;53.238;10.394;2023-03-01T04:38:11;3.00;;;2.73;;
3309;SDS011;1667;53.238;10.394;2023-03-01T04:43:10;3.93;;;2.90;;
3309;SDS011;1667;53.238;10.394;2023-03-01T04:48:11;5.37;;;3.00;;
3309;SDS011;1667;53.238;10.394;2023-03-01T04:53:10;3.63;;;3.33;;
3309;SDS011;1667;53.238;10.394;2023-03-01T04:58:09;4.03;;;3.30;;
3309;SDS011;1667;53.238;10.394;2023-03-01T05:03:08;2.90;;;2.60;;
3309;SDS011;1667;53.238;10.394;2023-03-01T05:08:08;3.50;;;3.10;;
3309;SDS011;1667;53.238;10.394;2023-03-01T05:13:14;3.30;;;2.43;;
3309;SDS011;1667;53.238;10.394;2023-03-01T05:18:17;3.20;;;2.70;;
3309;SDS011;1667;53.238;10.394;2023-03-01T05:23:17;4.93;;;3.13;;
3309;SDS011;1667;53.238;10.394;2023-03-01T05:28:16;2.87;;;2.30;;
3309;SDS011;1667;53.238;10.394;2023-03-01T05:33:14;5.20;;;2.70;;
3309;SDS011;1667;53.238;10.394;2023-03-01T05:38:14;4.57;;;3.60;;
3309;SDS011;1667;53.238;10.394;2023-03-01T05:43:15;6.03;;;3.60;;
3309;SDS011;1667;53.238;10.394;2023-03-01T05:48:14;3.77;;;2.80;;
3309;SDS011;1667;53.238;10.394;2023-03-01T05:53:13;7.90;;;5.60;;
3309;SDS011;1667;53.238;10.394;2023-03-01T05:58:15;6.27;;;4.87;;
3309;SDS011;1667;53.238;10.394;2023-03-01T06:03:16;4.43;;;3.30;;
3309;SDS011;1667;53.238;10.394;2023-03-01T06:08:15;3.67;;;2.93;;
3309;SDS011;1667;53.238;10.394;2023-03-01T06:13:15;7.70;;;3.63;;
3309;SDS011;1667;53.238;10.394;2023-03-01T06:18:13;4.93;;;3.33;;
3309;SDS011;1667;53.238;10.394;2023-03-01T06:23:12;3.90;;;3.03;;
3309;SDS011;1667;53.238;10.394;2023-03-01T06:28:10;3.70;;;3.40;;
3309;SDS011;1667;53.238;10.394;2023-03-01T06:33:10;5.70;;;3.30;;
3309;SDS011;1667;53.238;10.394;2023-03-01T06:38:08;4.37;;;2.73;;
3309;SDS011;1667;53.238;10.394;2023-03-01T06:43:07;6.70;;;4.20;;
3309;SDS011;1667;53.238;10.394;2023-03-01T06:48:06;5.53;;;4.33;;
3309;SDS011;1667;53.238;10.394;2023-03-01T06:53:06;4.03;;;3.20;;
3309;SDS011;1667;53.238;10.394;2023-03-01T06:58:05;4.53;;;3.23;;
3309;SDS011;1667;53.238;10.394;2023-03-01T07:03:03;3.10;;;2.80;;
3309;SDS011;1667;53.238;10.394;2023-03-01T07:08:02;6.77;;;3.27;;
3309;SDS011;1667;53.238;10.394;2023-03-01T07:13:02;2.93;;;2.70;;
3309;SDS011;1667;53.238;10.394;2023-03-01T07:18:03;5.80;;;3.37;;
3309;SDS011;1667;53.238;10.394;2023-03-01T07:23:01;5.70;;;2.50;;
3309;SDS011;1667;53.238;10.394;2023-03-01T07:28:01;8.47;;;2.73;;
3309;SDS011;1667;53.238;10.394;2023-03-01T07:32:59;4.27;;;3.10;;
3309;SDS011;1667;53.238;10.394;2023-03-01T07:37:58;8.00;;;2.70;;
3309;SDS011;1667;53.238;10.394;2023-03-01T07:42:57;2.20;;;2.10;;
3309;SDS011;1667;53.238;10.394;2023-03-01T07:47:57;3.63;;;2.60;;
3309;SDS011;1667;53.238;10.394;2023-03-01T07:52:56;5.03;;;2.97;;
3309;SDS011;1667;53.238;10.394;2023-03-01T07:57:54;6.73;;;4.13;;
3309;SDS011;1667;53.238;10.394;2023-03-01T08:02:52;4.37;;;2.97;;
3309;SDS011;1667;53.238;10.394;2023-03-01T08:07:52;5.00;;;3.00;;
3309;SDS011;1667;53.238;10.394;2023-03-01T08:12:52;4.57;;;3.33;;
3309;SDS011;1667;53.238;10.394;2023-03-01T08:17:50;3.53;;;2.50;;
3309;SDS011;1667;53.238;10.394;2023-03-01T08:22:49;3.73;;;3.27;;
3309;SDS011;1667;53.238;10.394;2023-03-01T08:27:49;4.70;;;3.37;;
3309;SDS011;1667;53.238;10.394;2023-03-01T08:32:47;7.60;;;3.57;;
3309;SDS011;1667;53.238;10.394;2023-03-01T08:37:46;3.80;;;2.60;;
3309;SDS011;1667;53.238;10.394;2023-03-01T08:42:45;3.50;;;2.40;;
3309;SDS011;1667;53.238;10.394;2023-03-01T08:47:45;3.70;;;2.67;;
3309;SDS011;1667;53.238;10.394;2023-03-01T08:52:43;3.10;;;2.53;;
3309;SDS011;1667;53.238;10.394;2023-03-01T08:57:42;5.27;;;4.00;;
3309;SDS011;1667;53.238;10.394;2023-03-01T09:02:42;9.93;;;2.60;;
3309;SDS011;1667;53.238;10.394;2023-03-01T09:07:41;4.43;;;2.70;;
3309;SDS011;1667;53.238;10.394;2023-03-01T09:12:40;3.17;;;2.73;;
3309;SDS011;1667;53.238;10.394;2023-03-01T09:17:39;3.67;;;3.07;;
3309;SDS011;1667;53.238;10.394;2023-03-01T09:22:37;2.63;;;2.30;;
3309;SDS011;1667;53.238;10.394;2023-03-01T09:27:37;6.70;;;3.30;;
3309;SDS011;1667;53.238;10.394;2023-03-01T09:32:35;5.50;;;3.73;;
3309;SDS011;1667;53.238;10.394;2023-03-01T09:37:39;3.93;;;3.27;;
3309;SDS011;1667;53.238;10.394;2023-03-01T09:42:45;8.80;;;5.07;;
3309;SDS011;1667;53.238;10.394;2023-03-01T09:47:48;6.20;;;3.10;;
3309;SDS011;1667;53.238;10.394;2023-03-01T09:52:48;7.97;;;5.57;;
3309;SDS011;1667;53.238;10.394;2023-03-01T09:57:54;9.67;;;5.40;;
3309;SDS011;1667;53.238;10.394;2023-03-01T10:03:01;7.67;;;5.13;;
3309;SDS011;1667;53.238;10.394;2023-03-01T10:08:19;6.40;;;4.77;;
3309;SDS011;1667;53.238;10.394;2023-03-01T10:13:37;8.83;;;5.00;;
3309;SDS011;1667;53.238;10.394;2023-03-01T10:18:46;5.07;;;3.10;;
3309;SDS011;1667;53.238;10.394;2023-03-01T10:23:50;8.00;;;5.70;;
3309;SDS011;1667;53.238;10.394;2023-03-01T10:28:54;12.27;;;6.47;;
3309;SDS011;1667;53.238;10.394;2023-03-01T10:33:59;7.33;;;4.80;;
3309;SDS011;1667;53.238;10.394;2023-03-01T10:38:57;9.77;;;5.67;;
3309;SDS011;1667;53.238;10.394;2023-03-01T10:43:58;7.30;;;5.27;;
3309;SDS011;1667;53.238;10.394;2023-03-01T10:49:06;10.90;;;6.17;;
3309;SDS011;1667;53.238;10.394;2023-03-01T10:54:15;10.60;;;6.83;;
3309;SDS011;1667;53.238;10.394;2023-03-01T10:59:24;7.63;;;5.00;;
3309;SDS011;1667;53.238;10.394;2023-03-01T11:04:24;10.77;;;7.30;;
3309;SDS011;1667;53.238;10.394;2023-03-01T11:09:23;11.43;;;6.90;;
3309;SDS011;1667;53.238;10.394;2023-03-01T11:14:25;11.73;;;6.13;;
3309;SDS011;1667;53.238;10.394;2023-03-01T11:19:24;10.47;;;6.33;;
3309;SDS011;1667;53.238;10.394;2023-03-01T11:24:24;13.33;;;7.63;;
3309;SDS011;1667;53.238;10.394;2023-03-01T11:29:30;14.07;;;8.17;;
3309;SDS011;1667;53.238;10.394;2023-03-01T11:34:45;9.70;;;5.77;;
3309;SDS011;1667;53.238;10.394;2023-03-01T11:39:51;10.87;;;7.80;;
3309;SDS011;1667;53.238;10.394;2023-03-01T11:44:58;10.90;;;7.00;;
3309;SDS011;1667;53.238;10.394;2023-03-01T11:50:06;12.67;;;6.33;;
3309;SDS011;1667;53.238;10.394;2023-03-01T11:55:19;13.23;;;7.57;;
3309;SDS011;1667;53.238;10.394;2023-03-01T12:00:35;9.00;;;6.37;;
3309;SDS011;1667;53.238;10.394;2023-03-01T12:05:51;9.60;;;6.50;;
3309;SDS011;1667;53.238;10.394;2023-03-01T12:11:08;10.67;;;6.50;;
3309;SDS011;1667;53.238;10.394;2023-03-01T12:16:24;9.20;;;7.00;;
3309;SDS011;1667;53.238;10.394;2023-03-01T12:21:39;11.83;;;6.70;;
3309;SDS011;1667;53.238;10.394;2023-03-01T12:26:47;12.00;;;7.27;;
3309;SDS011;1667;53.238;10.394;2023-03-01T12:37:29;11.17;;;8.00;;
3309;SDS011;1667;53.238;10.394;2023-03-01T12:42:35;9.87;;;7.53;;
3309;SDS011;1667;53.238;10.394;2023-03-01T12:47:50;12.00;;;7.97;;
3309;SDS011;1667;53.238;10.394;2023-03-01T12:52:56;11.07;;;7.70;;
3309;SDS011;1667;53.238;10.394;2023-03-01T12:57:57;13.63;;;7.87;;
3309;SDS011;1667;53.238;10.394;2023-03-01T13:03:09;9.87;;;6.63;;
3309;SDS011;1667;53.238;10.394;2023-03-01T13:08:15;11.10;;;8.37;;
3309;SDS011;1667;53.238;10.394;2023-03-01T13:13:19;10.53;;;5.30;;
3309;SDS011;1667;53.238;10.394;2023-03-01T13:18:31;15.07;;;8.87;;
3309;SDS011;1667;53.238;10.394;2023-03-01T13:23:35;7.30;;;5.23;;
3309;SDS011;1667;53.238;10.394;2023-03-01T13:33:58;11.07;;;7.50;;
3309;SDS011;1667;53.238;10.394;2023-03-01T13:38:57;13.43;;;9.00;;
3309;SDS011;1667;53.238;10.394;2023-03-01T13:43:57;13.00;;;8.50;;
3309;SDS011;1667;53.238;10.394;2023-03-01T13:48:57;19.07;;;9.97;;
3309;SDS011;1667;53.238;10.394;2023-03-01T13:53:56;11.60;;;8.00;;
3309;SDS011;1667;53.238;10.394;2023-03-01T13:58:58;15.77;;;8.60;;
3309;SDS011;1667;53.238;10.394;2023-03-01T14:04:01;11.53;;;8.03;;
3309;SDS011;1667;53.238;10.394;2023-03-01T14:09:02;17.10;;;10.00;;
3309;SDS011;1667;53.238;10.394;2023-03-01T14:14:12;12.27;;;8.30;;
3309;SDS011;1667;53.238;10.394;2023-03-01T14:19:30;10.03;;;7.10;;
3309;SDS011;1667;53.238;10.394;2023-03-01T14:24:30;11.67;;;7.70;;
3309;SDS011;1667;53.238;10.394;2023-03-01T14:29:33;11.30;;;7.10;;
3309;SDS011;1667;53.238;10.394;2023-03-01T14:34:34;12.40;;;8.30;;
3309;SDS011;1667;53.238;10.394;2023-03-01T14:39:33;15.60;;;9.07;;
3309;SDS011;1667;53.238;10.394;2023-03-01T14:44:31;12.67;;;8.57;;
3309;SDS011;1667;53.238;10.394;2023-03-01T14:49:35;11.70;;;7.93;;
3309;SDS011;1667;53.238;10.394;2023-03-01T14:54:35;13.20;;;8.27;;
3309;SDS011;1667;53.238;10.394;2023-03-01T14:59:38;12.10;;;8.73;;
3309;SDS011;1667;53.238;10.394;2023-03-01T15:04:40;11.90;;;8.37;;
3309;SDS011;1667;53.238;10.394;2023-03-01T15:09:40;8.80;;;7.10;;
3309;SDS011;1667;53.238;10.394;2023-03-01T15:14:40;8.33;;;6.27;;
3309;SDS011;1667;53.238;10.394;2023-03-01T15:19:54;12.83;;;7.37;;
3309;SDS011;1667;53.238;10.394;2023-03-01T15:24:53;9.07;;;6.00;;
3309;SDS011;1667;53.238;10.394;2023-03-01T15:29:53;9.67;;;6.40;;
3309;SDS011;1667;53.238;10.394;2023-03-01T15:34:57;13.87;;;7.60;;
3309;SDS011;1667;53.238;10.394;2023-03-01T15:39:56;10.00;;;7.00;;
3309;SDS011;1667;53.238;10.394;2023-03-01T15:45:07;11.70;;;7.90;;
3309;SDS011;1667;53.238;10.394;2023-03-01T15:50:15;10.43;;;7.20;;
3309;SDS011;1667;53.238;10.394;2023-03-01T15:55:17;11.03;;;7.10;;
3309;SDS011;1667;53.238;10.394;2023-03-01T16:00:18;13.47;;;8.00;;
3309;SDS011;1667;53.238;10.394;2023-03-01T16:05:20;5.10;;;3.83;;
3309;SDS011;1667;53.238;10.394;2023-03-01T16:10:20;11.10;;;7.33;;
3309;SDS011;1667;53.238;10.394;2023-03-01T16:15:20;11.70;;;7.73;;
3309;SDS011;1667;53.238;10.394;2023-03-01T16:20:21;15.13;;;7.33;;
3309;SDS011;1667;53.238;10.394;2023-03-01T16:25:27;11.50;;;7.10;;
3309;SDS011;1667;53.238;10.394;2023-03-01T16:30:26;9.17;;;6.80;;
3309;SDS011;1667;53.238;10.394;2023-03-01T16:35:26;10.30;;;7.00;;
3309;SDS011;1667;53.238;10.394;2023-03-01T16:40:26;11.03;;;7.37;;
3309;SDS011;1667;53.238;10.394;2023-03-01T16:45:26;11.00;;;7.00;;
3309;SDS011;1667;53.238;10.394;2023-03-01T16:50:27;11.40;;;8.43;;
3309;SDS011;1667;53.238;10.394;2023-03-01T16:55:26;10.03;;;7.10;;
3309;SDS011;1667;53.238;10.394;2023-03-01T17:00:24;10.70;;;7.27;;
3309;SDS011;1667;53.238;10.394;2023-03-01T17:05:23;13.13;;;6.90;;
3309;SDS011;1667;53.238;10.394;2023-03-01T17:10:23;15.80;;;9.77;;
3309;SDS011;1667;53.238;10.394;2023-03-01T17:15:22;20.13;;;12.40;;
3309;SDS011;1667;53.238;10.394;2023-03-01T17:20:20;12.47;;;8.63;;
3309;SDS011;1667;53.238;10.394;2023-03-01T17:25:19;9.70;;;7.70;;
3309;SDS011;1667;53.238;10.394;2023-03-01T17:30:19;12.57;;;8.03;;
3309;SDS011;1667;53.238;10.394;2023-03-01T17:35:18;9.93;;;7.10;;
3309;SDS011;1667;53.238;10.394;2023-03-01T17:40:16;12.63;;;6.60;;
3309;SDS011;1667;53.238;10.394;2023-03-01T17:45:15;9.60;;;6.33;;
3309;SDS011;1667;53.238;10.394;2023-03-01T17:50:15;10.77;;;6.87;;
3309;SDS011;1667;53.238;10.394;2023-03-01T17:55:14;10.17;;;5.87;;
3309;SDS011;1667;53.238;10.394;2023-03-01T18:00:13;9.37;;;6.43;;
3309;SDS011;1667;53.238;10.394;2023-03-01T18:05:14;9.87;;;6.97;;
3309;SDS011;1667;53.238;10.394;2023-03-01T18:10:13;12.17;;;7.40;;
3309;SDS011;1667;53.238;10.394;2023-03-01T18:15:11;14.77;;;9.33;;
3309;SDS011;1667;53.238;10.394;2023-03-01T18:20:10;14.73;;;8.37;;
3309;SDS011;1667;53.238;10.394;2023-03-01T18:25:12;14.80;;;9.33;;
3309;SDS011;1667;53.238;10.394;2023-03-01T18:30:11;18.47;;;11.13;;
3309;SDS011;1667;53.238;10.394;2023-03-01T18:35:10;19.93;;;12.00;;
3309;SDS011;1667;53.238;10.394;2023-03-01T18:40:09;19.20;;;11.90;;
3309;SDS011;1667;53.238;10.394;2023-03-01T18:45:10;24.37;;;13.97;;
3309;SDS011;1667;53.238;10.394;2023-03-01T18:50:10;26.30;;;13.13;;
3309;SDS011;1667;53.238;10.394;2023-03-01T18:55:09;32.20;;;15.87;;
3309;SDS011;1667;53.238;10.394;2023-03-01T19:00:08;30.27;;;16.43;;
3309;SDS011;1667;53.238;10.394;2023-03-01T19:05:09;30.07;;;16.80;;
3309;SDS011;1667;53.238;10.394;2023-03-01T19:10:08;31.70;;;16.43;;
3309;SDS011;1667;53.238;10.394;2023-03-01T19:15:07;29.53;;;16.67;;
3309;SDS011;1667;53.238;10.394;2023-03-01T19:20:09;31.10;;;16.30;;
3309;SDS011;1667;53.238;10.394;2023-03-01T19:25:09;27.90;;;16.60;;
3309;SDS011;1667;53.238;10.394;2023-03-01T19:30:08;29.97;;;16.17;;
3309;SDS011;1667;53.238;10.394;2023-03-01T19:35:09;29.83;;;16.97;;
3309;SDS011;1667;53.238;10.394;2023-03-01T19:40:08;35.93;;;19.73;;
3309;SDS011;1667;53.238;10.394;2023-03-01T19:45:08;31.67;;;16.17;;
3309;SDS011;1667;53.238;10.394;2023-03-01T19:50:10;34.90;;;18.90;;
3309;SDS011;1667;53.238;10.394;2023-03-01T19:55:09;32.50;;;18.60;;
3309;SDS011;1667;53.238;10.394;2023-03-01T20:00:08;41.30;;;18.77;;
3309;SDS011;1667;53.238;10.394;2023-03-01T20:05:08;130.60;;;25.70;;
3309;SDS011;1667;53.238;10.394;2023-03-01T20:10:08;52.97;;;17.03;;
3309;SDS011;1667;53.238;10.394;2023-03-01T20:15:08;80.97;;;21.83;;
3309;SDS011;1667;53.238;10.394;2023-03-01T20:20:07;63.47;;;19.63;;
3309;SDS011;1667;53.238;10.394;2023-03-01T20:25:09;33.67;;;16.50;;
3309;SDS011;1667;53.238;10.394;2023-03-01T20:30:08;32.80;;;15.10;;
3309;SDS011;1667;53.238;10.394;2023-03-01T20:35:09;43.47;;;16.63;;
3309;SDS011;1667;53.238;10.394;2023-03-01T20:40:09;113.37;;;23.17;;
3309;SDS011;1667;53.238;10.394;2023-03-01T20:45:08;74.10;;;19.47;;
3309;SDS011;1667;53.238;10.394;2023-03-01T20:50:10;225.20;;;28.63;;
3309;SDS011;1667;53.238;10.394;2023-03-01T20:55:09;104.50;;;18.43;;
3309;SDS011;1667;53.238;10.394;2023-03-01T21:00:08;80.43;;;18.17;;
3309;SDS011;1667;53.238;10.394;2023-03-01T21:05:09;56.10;;;17.00;;
3309;SDS011;1667;53.238;10.394;2023-03-01T21:10:08;54.13;;;15.40;;
3309;SDS011;1667;53.238;10.394;2023-03-01T21:15:08;47.87;;;15.03;;
3309;SDS011;1667;53.238;10.394;2023-03-01T21:20:25;39.93;;;14.37;;
3309;SDS011;1667;53.238;10.394;2023-03-01T21:25:23;73.53;;;17.43;;
3309;SDS011;1667;53.238;10.394;2023-03-01T21:30:30;72.67;;;16.07;;
3309;SDS011;1667;53.238;10.394;2023-03-01T21:35:30;25.23;;;12.07;;
3309;SDS011;1667;53.238;10.394;2023-03-01T21:40:29;65.17;;;15.03;;
3309;SDS011;1667;53.238;10.394;2023-03-01T21:45:27;26.10;;;12.30;;
3309;SDS011;1667;53.238;10.394;2023-03-01T21:50:26;33.47;;;13.57;;
3309;SDS011;1667;53.238;10.394;2023-03-01T21:55:26;33.87;;;11.80;;
3309;SDS011;1667;53.238;10.394;2023-03-01T22:00:24;48.37;;;14.40;;
3309;SDS011;1667;53.238;10.394;2023-03-01T22:05:24;14.27;;;7.40;;
3309;SDS011;1667;53.238;10.394;2023-03-01T22:10:22;33.57;;;12.40;;
3309;SDS011;1667;53.238;10.394;2023-03-01T22:15:24;42.00;;;13.13;;
3309;SDS011;1667;53.238;10.394;2023-03-01T22:20:24;64.13;;;15.53;;
3309;SDS011;1667;53.238;10.394;2023-03-01T22:25:23;76.43;;;15.13;;
3309;SDS011;1667;53.238;10.394;2023-03-01T22:30:21;90.03;;;16.23;;
3309;SDS011;1667;53.238;10.394;2023-03-01T22:35:21;54.23;;;13.40;;
3309;SDS011;1667;53.238;10.394;2023-03-01T22:40:20;90.57;;;14.67;;
3309;SDS011;1667;53.238;10.394;2023-03-01T22:45:19;48.00;;;14.07;;
3309;SDS011;1667;53.238;10.394;2023-03-01T22:50:19;41.40;;;11.60;;
3309;SDS011;1667;53.238;10.394;2023-03-01T22:55:18;32.20;;;10.90;;
3309;SDS011;1667;53.238;10.394;2023-03-01T23:00:17;76.83;;;13.87;;
3309;SDS011;1667;53.238;10.394;2023-03-01T23:05:16;128.97;;;17.40;;
3309;SDS011;1667;53.238;10.394;2023-03-01T23:10:16;59.30;;;11.57;;
3309;SDS011;1667;53.238;10.394;2023-03-01T23:15:14;205.53;;;22.27;;
3309;SDS011;1667;53.238;10.394;2023-03-01T23:20:13;72.53;;;12.77;;
3309;SDS011;1667;53.238;10.394;2023-03-01T23:25:12;43.10;;;9.03;;
3309;SDS011;1667;53.238;10.394;2023-03-01T23:30:13;23.30;;;8.40;;
3309;SDS011;1667;53.238;10.394;2023-03-01T23:35:12;55.63;;;11.13;;
3309;SDS011;1667;53.238;10.394;2023-03-01T23:40:10;52.40;;;10.70;;
3309;SDS011;1667;53.238;10.394;2023-03-01T23:45:10;115.57;;;15.60;;
3309;SDS011;1667;53.238;10.394;2023-03-01T23:50:10;37.67;;;10.07;;
3309;SDS011;1667;53.238;10.394;2023-03-01T23:55:08;92.20;;;11.90;;
